Time;durP1;ratioP1;P1;durP2;ratioP2;P2;SDS_P1;SDS_P2;PMS_P1;PMS_P2;Temp;Humidity;BMP_temperature;BMP_pressure;BME280_temperature;BME280_humidity;BME280_pressure;Samples;Min_cycle;Max_cycle;Signal;HPM_P1;HPM_P2
2022/11/06 00:01:42;;;;;;;14.77;11.17;;;;;;;4.83;100.00;152602.88;5056210;28;20496;-76
2022/11/06 00:04:32;;;;;;;14.27;10.87;;;;;;;4.80;100.00;152595.13;5072124;28;20784;-76
2022/11/06 00:07:17;;;;;;;10.67;9.57;;;;;;;4.77;100.00;152588.69;5073351;28;20527;-76
2022/11/06 00:10:02;;;;;;;12.80;9.87;;;;;;;4.77;100.00;152588.69;5074145;28;20492;-76
2022/11/06 00:12:48;;;;;;;13.00;10.77;;;;;;;4.74;100.00;152580.97;5075287;28;20410;-76
2022/11/06 00:15:33;;;;;;;13.53;10.97;;;;;;;4.73;100.00;152578.41;5074387;28;20459;-76
2022/11/06 00:18:18;;;;;;;13.03;10.23;;;;;;;4.69;100.00;152566.78;5070388;28;20542;-76
2022/11/06 00:21:09;;;;;;;12.27;10.90;;;;;;;4.71;100.00;152571.97;5074020;28;20808;-76
2022/11/06 00:23:55;;;;;;;18.03;12.47;;;;;;;4.69;100.00;152568.06;5074374;28;20449;-76
2022/11/06 00:26:41;;;;;;;13.00;10.57;;;;;;;4.76;100.00;152586.16;5057647;28;20951;-76
2022/11/06 00:29:27;;;;;;;12.90;10.00;;;;;;;4.74;100.00;152579.66;5075439;28;20441;-76
2022/11/06 00:32:12;;;;;;;14.30;10.57;;;;;;;4.73;100.00;152577.13;5075137;28;20406;-76
2022/11/06 00:34:57;;;;;;;13.40;10.13;;;;;;;4.74;100.00;152579.66;5074463;28;20943;-76
2022/11/06 00:37:44;;;;;;;12.73;11.10;;;;;;;4.70;100.00;152569.38;5072884;28;20493;-76
2022/11/06 00:40:30;;;;;;;13.43;11.20;;;;;;;4.72;100.00;152574.50;5067218;28;20444;-76
2022/11/06 00:43:15;;;;;;;13.30;9.77;;;;;;;4.67;100.00;152562.94;5074031;28;20588;-76
2022/11/06 00:46:01;;;;;;;11.80;9.80;;;;;;;4.64;100.00;152555.19;5073614;28;20453;-76
2022/11/06 00:48:47;;;;;;;16.20;10.67;;;;;;;4.64;100.00;152555.19;5074954;28;20401;-77
2022/11/06 00:51:34;;;;;;;14.03;10.83;;;;;;;4.56;100.00;152533.28;5073868;28;20478;-76
2022/11/06 00:54:21;;;;;;;14.20;12.27;;;;;;;4.54;100.00;152529.44;5073921;28;20461;-76
2022/11/06 00:57:06;;;;;;;13.23;10.23;;;;;;;4.51;100.00;152521.69;5064630;28;20461;-76
2022/11/06 00:59:51;;;;;;;14.13;11.07;;;;;;;4.49;100.00;152516.56;5065589;28;20452;-76
2022/11/06 01:02:37;;;;;;;14.93;10.73;;;;;;;4.46;100.00;152508.81;5071728;28;20425;-76
2022/11/06 01:05:23;;;;;;;14.00;11.13;;;;;;;4.46;100.00;152507.53;5073839;28;20438;-77
2022/11/06 01:08:08;;;;;;;13.03;10.67;;;;;;;4.42;100.00;152497.25;5083111;28;20451;-76
2022/11/06 01:10:55;;;;;;;14.90;10.60;;;;;;;4.40;100.00;152493.34;5072948;28;20837;-76
2022/11/06 01:13:40;;;;;;;14.83;10.17;;;;;;;4.37;100.00;152485.63;5057649;28;20596;-76
2022/11/06 01:16:27;;;;;;;11.73;9.70;;;;;;;4.38;100.00;152488.22;5069930;28;20504;-75
2022/11/06 01:19:13;;;;;;;15.63;10.83;;;;;;;4.37;100.00;152485.63;5069606;28;20460;-76
2022/11/06 01:21:58;;;;;;;17.40;10.37;;;;;;;4.41;100.00;152495.94;5070290;28;20441;-75
2022/11/06 01:24:44;;;;;;;12.40;10.03;;;;;;;4.38;100.00;152488.22;5073338;28;20440;-75
2022/11/06 01:27:31;;;;;;;11.43;9.70;;;;;;;4.36;100.00;152483.06;5072543;28;20511;-76
2022/11/06 01:30:17;;;;;;;12.80;9.70;;;;;;;4.33;100.00;152475.34;5065473;28;20527;-76
2022/11/06 01:33:02;;;;;;;12.20;9.40;;;;;;;4.28;100.00;152462.47;5074059;28;20418;-75
2022/11/06 01:35:48;;;;;;;11.17;9.97;;;;;;;4.26;100.00;152457.31;5073276;28;20943;-76
2022/11/06 01:38:33;;;;;;;12.67;10.57;;;;;;;4.22;100.00;152447.00;5070933;28;20776;-76
2022/11/06 01:41:21;;;;;;;10.67;8.93;;;;;;;4.19;100.00;152440.56;5054837;28;20418;-76
2022/11/06 01:44:39;;;;;;;17.40;10.70;;;;;;;4.23;100.00;152449.59;5054692;28;20520;-75
2022/11/06 01:47:28;;;;;;;15.30;11.23;;;;;;;4.23;100.00;152449.59;5070101;28;20437;-75
2022/11/06 01:50:15;;;;;;;13.07;10.57;;;;;;;4.22;100.00;152447.00;5073934;28;20425;-76
2022/11/06 01:53:01;;;;;;;12.07;10.37;;;;;;;4.19;100.00;152439.25;5073331;28;20405;-76
2022/11/06 01:55:49;;;;;;;14.57;10.50;;;;;;;4.16;100.00;152432.81;5071322;28;20786;-75
2022/11/06 01:58:36;;;;;;;11.80;9.90;;;;;;;4.13;100.00;152423.84;5071527;28;20437;-76
2022/11/06 02:01:23;;;;;;;15.67;10.83;;;;;;;4.13;100.00;152423.84;5057380;28;20413;-76
2022/11/06 02:04:12;;;;;;;13.57;10.10;;;;;;;4.10;100.00;152416.09;5063350;28;20504;-76
2022/11/06 02:06:58;;;;;;;10.97;9.17;;;;;;;4.08;100.00;152412.22;5063507;28;20599;-76
2022/11/06 02:09:44;;;;;;;13.77;11.00;;;;;;;4.06;100.00;152407.06;5038517;28;20911;-76
2022/11/06 02:12:45;;;;;;;11.60;9.70;;;;;;;4.03;100.00;152398.03;5072284;28;20576;-75
2022/11/06 02:15:38;;;;;;;14.40;10.57;;;;;;;4.00;100.00;152390.31;5070021;28;20576;-75
2022/11/06 02:18:53;;;;;;;12.33;9.60;;;;;;;3.99;100.00;152387.75;5063482;28;20981;-76
2022/11/06 02:22:05;;;;;;;12.37;9.93;;;;;;;3.99;100.00;152387.75;5071490;28;20631;-76
2022/11/06 02:25:00;;;;;;;13.37;10.30;;;;;;;3.94;100.00;152374.88;5072226;28;20735;-76
2022/11/06 02:27:50;;;;;;;12.93;9.80;;;;;;;3.93;100.00;152372.28;5072693;28;20394;-76
2022/11/06 02:30:40;;;;;;;11.70;8.97;;;;;;;3.91;100.00;152367.16;5072497;28;20460;-76
2022/11/06 02:33:28;;;;;;;11.03;9.70;;;;;;;3.91;100.00;152367.16;5068644;28;20429;-75
2022/11/06 02:36:16;;;;;;;10.60;9.50;;;;;;;3.86;100.00;152355.56;5072826;28;20430;-76
2022/11/06 02:39:06;;;;;;;10.30;8.80;;;;;;;3.82;100.00;152345.25;5072097;28;20543;-75
2022/11/06 02:41:52;;;;;;;12.13;10.00;;;;;;;3.80;100.00;152340.13;5069215;28;20817;-76
2022/11/06 02:44:40;;;;;;;12.60;9.63;;;;;;;3.84;100.00;152349.16;5052711;28;20797;-75
2022/11/06 02:47:28;;;;;;;12.70;10.43;;;;;;;3.82;100.00;152345.25;5052934;28;20402;-76
2022/11/06 02:50:17;;;;;;;12.10;10.17;;;;;;;3.76;100.00;152328.53;5065468;28;20453;-75
2022/11/06 02:53:05;;;;;;;12.00;9.90;;;;;;;3.76;100.00;152328.53;5071543;28;20477;-76
2022/11/06 02:55:52;;;;;;;13.00;10.40;;;;;;;3.76;100.00;152328.53;5073040;28;20479;-75
2022/11/06 02:58:41;;;;;;;14.80;10.40;;;;;;;3.73;100.00;152320.81;5071248;28;20457;-76
2022/11/06 03:01:29;;;;;;;15.07;11.20;;;;;;;3.74;100.00;152323.34;5055115;28;20445;-75
2022/11/06 03:04:19;;;;;;;13.33;11.63;;;;;;;3.73;100.00;152320.81;5072546;28;20420;-76
2022/11/06 03:07:08;;;;;;;15.43;11.00;;;;;;;3.71;100.00;152315.69;5072834;28;20468;-76
2022/11/06 03:09:54;;;;;;;13.50;10.33;;;;;;;3.73;100.00;152320.81;5051700;28;20607;-76
2022/11/06 03:12:48;;;;;;;14.80;11.27;;;;;;;3.67;100.00;152306.66;5072358;28;20472;-76
2022/11/06 03:15:37;;;;;;;11.43;9.80;;;;;;;3.64;100.00;152298.91;5071758;28;20475;-75
2022/11/06 03:18:28;;;;;;;11.93;9.33;;;;;;;3.62;100.00;152295.06;5054466;28;20441;-76
2022/11/06 03:21:19;;;;;;;13.57;9.67;;;;;;;3.61;100.00;152292.47;5071544;28;20430;-76
2022/11/06 03:24:13;;;;;;;13.33;11.23;;;;;;;3.61;100.00;152291.19;5063838;28;20425;-76
2022/11/06 03:26:59;;;;;;;14.70;10.77;;;;;;;3.61;100.00;152292.47;5070860;28;20547;-75
2022/11/06 03:29:46;;;;;;;11.47;10.23;;;;;;;3.54;100.00;152274.47;5072051;28;20441;-75
2022/11/06 03:32:36;;;;;;;11.60;9.50;;;;;;;3.48;100.00;152259.00;5072680;28;20406;-75
2022/11/06 03:35:26;;;;;;;10.77;9.50;;;;;;;3.46;100.00;152253.88;5071575;28;20940;-76
2022/11/06 03:38:13;;;;;;;11.50;10.30;;;;;;;3.42;100.00;152243.56;5069950;28;20452;-76
2022/11/06 03:41:02;;;;;;;13.80;10.40;;;;;;;3.37;100.00;152230.69;5076204;28;20507;-75
2022/11/06 03:43:49;;;;;;;11.17;9.80;;;;;;;3.35;100.00;152224.25;5074121;28;20892;-76
2022/11/06 03:46:37;;;;;;;12.17;9.73;;;;;;;3.29;100.00;152210.09;5075049;28;20950;-76
2022/11/06 03:49:25;;;;;;;11.37;9.77;;;;;;;3.23;100.00;152194.63;5055598;28;20604;-76
2022/11/06 03:52:14;;;;;;;10.03;8.70;;;;;;;3.16;100.00;152176.66;5056440;28;20415;-75
2022/11/06 03:55:03;;;;;;;14.60;9.70;;;;;;;3.10;100.00;152161.19;5072886;28;20453;-75
2022/11/06 03:57:51;;;;;;;11.63;9.50;;;;;;;3.06;100.00;152152.22;5075033;28;20449;-75
2022/11/06 04:00:39;;;;;;;11.43;9.13;;;;;;;3.02;100.00;152140.59;5075398;28;20580;-76
2022/11/06 04:03:27;;;;;;;9.60;8.53;;;;;;;2.99;100.00;152132.91;5073169;28;20444;-76
2022/11/06 04:06:16;;;;;;;11.90;9.60;;;;;;;2.94;100.00;152120.00;5074786;28;20745;-75
2022/11/06 04:15:23;;;;;;;10.43;8.43;;;;;;;2.77;100.00;152076.28;5012989;28;20513;-75
2022/11/06 04:18:12;;;;;;;9.93;8.20;;;;;;;2.73;100.00;152065.97;5064524;28;20437;-76
2022/11/06 04:21:24;;;;;;;9.13;8.20;;;;;;;2.67;100.00;152051.88;5066478;28;20442;-76
2022/11/06 04:27:30;;;;;;;9.13;7.70;;;;;;;2.51;100.00;152009.41;5055786;28;20454;-75
2022/11/06 04:30:17;;;;;;;8.87;7.20;;;;;;;2.46;100.00;151997.84;5066706;28;20461;-75
2022/11/06 04:33:06;;;;;;;8.60;7.33;;;;;;;2.42;100.00;151988.84;5055432;28;20750;-76
2022/11/06 04:35:59;;;;;;;10.07;7.70;;;;;;;2.38;100.00;151977.28;5068298;28;20433;-75
2022/11/06 04:38:51;;;;;;;9.43;8.43;;;;;;;2.32;100.00;151963.13;5064637;28;20453;-76
2022/11/06 04:41:41;;;;;;;7.63;6.80;;;;;;;2.28;100.00;151952.81;5058486;28;20505;-75
2022/11/06 04:44:30;;;;;;;9.73;6.97;;;;;;;2.29;100.00;151955.41;5074999;28;20495;-76
2022/11/06 04:47:17;;;;;;;7.83;6.97;;;;;;;2.27;100.00;151950.28;5074718;28;20470;-75
2022/11/06 04:50:06;;;;;;;8.80;7.13;;;;;;;2.26;100.00;151946.41;5069667;28;21050;-75
2022/11/06 04:52:52;;;;;;;7.87;6.83;;;;;;;2.31;100.00;151960.53;5075110;28;20428;-76
2022/11/06 04:55:44;;;;;;;8.10;6.90;;;;;;;2.32;100.00;151963.13;5039845;28;20430;-76
2022/11/06 04:58:31;;;;;;;8.10;7.00;;;;;;;2.34;100.00;151968.25;5069096;28;20453;-76
2022/11/06 05:01:16;;;;;;;7.40;6.70;;;;;;;2.31;100.00;151960.53;5073877;28;20583;-76
2022/11/06 05:04:01;;;;;;;8.47;6.90;;;;;;;2.29;100.00;151954.13;5074575;28;20441;-76
2022/11/06 05:06:47;;;;;;;7.73;6.90;;;;;;;2.33;100.00;151965.66;5072785;28;20465;-76
2022/11/06 05:09:32;;;;;;;6.90;6.20;;;;;;;2.35;100.00;151970.84;5070853;28;20477;-77
2022/11/06 05:12:17;;;;;;;7.67;6.87;;;;;;;2.34;100.00;151968.25;5074908;28;20852;-76
2022/11/06 05:15:05;;;;;;;8.17;7.03;;;;;;;2.37;100.00;151974.69;5073353;28;20532;-76
2022/11/06 05:17:50;;;;;;;9.70;7.57;;;;;;;2.45;100.00;151996.56;5071668;28;20441;-76
2022/11/06 05:20:36;;;;;;;8.47;7.30;;;;;;;2.46;100.00;151999.09;5074240;28;20441;-76
2022/11/06 05:23:20;;;;;;;11.50;7.87;;;;;;;2.54;100.00;152018.44;5059187;28;20409;-76
2022/11/06 05:26:06;;;;;;;9.27;7.57;;;;;;;2.64;100.00;152042.84;5072591;28;20433;-76
2022/11/06 05:28:51;;;;;;;8.30;6.83;;;;;;;2.62;100.00;152037.72;5070834;28;20460;-76
2022/11/06 05:31:38;;;;;;;9.23;7.90;;;;;;;2.61;100.00;152035.13;5074278;28;20410;-75
2022/11/06 05:34:23;;;;;;;9.73;7.70;;;;;;;2.61;100.00;152035.13;5071478;28;20557;-75
2022/11/06 05:37:09;;;;;;;10.90;7.97;;;;;;;2.60;100.00;152032.53;5073377;28;20542;-75
2022/11/06 05:39:54;;;;;;;8.80;7.70;;;;;;;2.62;100.00;152038.97;5073615;28;20912;-76
2022/11/06 05:42:40;;;;;;;9.87;8.17;;;;;;;2.61;100.00;152035.13;5058187;28;20448;-76
2022/11/06 05:45:25;;;;;;;11.03;8.17;;;;;;;2.66;100.00;152049.28;5052306;28;20429;-76
2022/11/06 05:48:12;;;;;;;9.40;8.07;;;;;;;2.63;100.00;152041.56;5071756;28;20468;-76
2022/11/06 05:51:00;;;;;;;8.60;7.07;;;;;;;2.59;100.00;152030.00;5072942;28;20503;-75
2022/11/06 05:53:45;;;;;;;8.87;7.73;;;;;;;2.61;100.00;152036.44;5066297;28;20859;-76
2022/11/06 05:56:31;;;;;;;10.10;8.30;;;;;;;2.60;100.00;152033.84;5068982;28;20495;-75
2022/11/06 05:59:17;;;;;;;9.13;7.30;;;;;;;2.63;100.00;152040.25;5073703;28;20425;-75
2022/11/06 06:02:02;;;;;;;8.70;7.70;;;;;;;2.62;100.00;152037.72;5067801;28;20449;-75
2022/11/06 06:04:48;;;;;;;9.53;7.73;;;;;;;2.68;100.00;152053.13;5058144;28;20434;-75
2022/11/06 06:07:33;;;;;;;8.93;8.03;;;;;;;2.73;100.00;152065.97;5073407;28;21062;-74
2022/11/06 06:10:19;;;;;;;9.23;7.73;;;;;;;2.71;100.00;152060.84;5069989;28;20846;-74
2022/11/06 06:13:04;;;;;;;8.43;7.07;;;;;;;2.65;100.00;152046.69;5073210;28;20891;-75
2022/11/06 06:15:49;;;;;;;13.17;7.77;;;;;;;2.69;100.00;152057.00;5058100;28;20425;-74
2022/11/06 06:18:35;;;;;;;10.30;7.90;;;;;;;2.71;100.00;152060.84;5072022;28;20807;-75
2022/11/06 06:21:21;;;;;;;10.23;7.60;;;;;;;2.74;100.00;152068.56;5051069;28;20429;-75
2022/11/06 06:24:08;;;;;;;9.33;8.00;;;;;;;2.75;100.00;152071.16;5072095;28;20456;-75
2022/11/06 06:26:52;;;;;;;9.20;7.37;;;;;;;2.73;100.00;152065.97;5072711;28;20406;-76
2022/11/06 06:29:38;;;;;;;12.20;7.93;;;;;;;2.68;100.00;152054.41;5054853;28;20444;-74
2022/11/06 06:32:23;;;;;;;10.33;8.20;;;;;;;2.63;100.00;152040.25;5072415;28;20464;-75
2022/11/06 06:35:09;;;;;;;9.73;7.67;;;;;;;2.68;100.00;152054.41;5071990;28;20521;-77
2022/11/06 06:37:56;;;;;;;13.27;8.07;;;;;;;2.76;100.00;152073.72;5070898;28;20976;-76
2022/11/06 06:40:41;;;;;;;9.83;8.30;;;;;;;2.78;100.00;152078.88;5070947;28;20941;-75
2022/11/06 06:43:26;;;;;;;11.17;8.00;;;;;;;2.95;100.00;152123.91;5072164;28;20496;-76
2022/11/06 06:46:11;;;;;;;11.10;8.90;;;;;;;3.15;100.00;152174.03;5070542;28;20453;-77
2022/11/06 06:48:56;;;;;;;15.10;8.03;;;;;;;3.37;100.00;152229.41;5045762;28;20453;-77
2022/11/06 06:54:44;;;;;;;10.40;8.60;;;;;;;3.82;100.00;152345.25;5047549;23;20478;-89
2022/11/06 06:57:29;;;;;;;10.23;8.23;;;;;;;4.00;100.00;152391.59;5048171;28;20425;-90
2022/11/06 07:00:15;;;;;;;8.27;7.37;;;;;;;4.18;100.00;152436.72;5063724;28;20450;-89
2022/11/06 07:03:01;;;;;;;10.27;7.63;;;;;;;4.28;100.00;152462.47;5051325;28;20430;-76
2022/11/06 07:05:46;;;;;;;11.17;8.20;;;;;;;4.45;100.00;152504.97;5052665;28;20519;-77
2022/11/06 07:08:32;;;;;;;10.23;7.73;;;;;;;4.64;100.00;152555.19;5054256;28;20651;-78
2022/11/06 07:11:19;;;;;;;9.73;8.20;;;;;;;4.83;100.00;152604.16;5058229;28;20528;-77
2022/11/06 07:14:04;;;;;;;9.93;8.90;;;;;;;4.92;100.00;152627.34;5061149;28;20453;-76
2022/11/06 07:16:49;;;;;;;9.47;8.37;;;;;;;5.01;100.00;152649.25;5085436;28;20420;-76
2022/11/06 07:19:34;;;;;;;10.23;8.70;;;;;;;5.03;100.00;152654.41;5079211;28;20441;-76
2022/11/06 07:22:20;;;;;;;8.93;7.80;;;;;;;4.81;100.00;152599.03;5072158;28;20558;-76
2022/11/06 07:25:06;;;;;;;9.47;8.23;;;;;;;4.76;100.00;152586.16;5074059;28;20789;-76
2022/11/06 07:27:53;;;;;;;9.90;8.80;;;;;;;4.44;100.00;152503.69;5073574;28;20588;-76
2022/11/06 07:30:38;;;;;;;9.70;8.43;;;;;;;4.27;100.00;152459.88;5075213;28;20398;-76
2022/11/06 07:33:24;;;;;;;8.27;7.43;;;;;;;4.19;100.00;152439.25;5073770;28;20587;-78
2022/11/06 07:36:11;;;;;;;11.17;8.57;;;;;;;4.12;100.00;152422.53;5070444;28;20552;-77
2022/11/06 07:38:57;;;;;;;9.73;8.73;;;;;;;4.20;100.00;152441.84;5072649;28;20449;-77
2022/11/06 07:41:43;;;;;;;11.67;8.33;;;;;;;3.99;100.00;152389.06;5072190;28;20922;-77
2022/11/06 07:44:30;;;;;;;14.80;7.27;;;;;;;3.88;100.00;152359.44;5058340;28;20507;-76
2022/11/06 07:47:15;;;;;;;11.53;8.90;;;;;;;3.76;100.00;152328.53;5072408;28;20476;-77
2022/11/06 07:50:00;;;;;;;13.53;7.50;;;;;;;3.69;100.00;152311.78;5072010;28;20440;-77
2022/11/06 07:52:45;;;;;;;9.30;7.80;;;;;;;3.65;100.00;152301.50;5072880;28;20464;-76
2022/11/06 07:55:31;;;;;;;10.90;6.97;;;;;;;3.53;100.00;152270.59;5075461;28;20463;-76
2022/11/06 07:58:16;;;;;;;16.73;7.63;;;;;;;3.47;100.00;152256.44;5070805;28;20452;-77
2022/11/06 08:01:03;;;;;;;9.40;7.70;;;;;;;3.56;100.00;152279.63;5057393;28;20512;-77
2022/11/06 08:03:48;;;;;;;9.17;7.00;;;;;;;3.61;100.00;152292.47;5058559;28;20587;-77
2022/11/06 08:06:34;;;;;;;11.37;8.03;;;;;;;3.61;100.00;152292.47;5068050;28;20779;-76
2022/11/06 08:09:20;;;;;;;9.17;7.03;;;;;;;3.61;100.00;152292.47;5071350;28;20534;-77
2022/11/06 08:12:07;;;;;;;10.53;7.40;;;;;;;3.73;100.00;152322.13;5075360;28;20441;-77
2022/11/06 08:14:53;;;;;;;8.97;6.70;;;;;;;3.74;100.00;152324.66;5064468;28;20445;-77
2022/11/06 08:17:40;;;;;;;9.60;7.40;;;;;;;3.86;100.00;152354.28;5072029;28;20819;-77
2022/11/06 08:20:25;;;;;;;9.13;7.40;;;;;;;3.89;100.00;152363.25;5074546;28;20410;-77
2022/11/06 08:23:12;;;;;;;9.80;6.70;;;;;;;3.84;100.00;152349.16;5073727;28;20464;-76
2022/11/06 08:25:59;;;;;;;11.90;7.30;;;;;;;3.87;100.00;152356.81;5066457;28;20592;-76
2022/11/06 08:28:44;;;;;;;9.67;7.07;;;;;;;4.00;100.00;152390.31;5073695;28;20480;-76
2022/11/06 08:31:30;;;;;;;7.53;6.63;;;;;;;4.15;100.00;152428.97;5051363;28;20437;-77
2022/11/06 08:34:16;;;;;;;7.80;7.03;;;;;;;4.27;100.00;152461.16;5062245;28;20437;-76
2022/11/06 08:37:02;;;;;;;8.77;7.70;;;;;;;4.35;100.00;152480.47;5067166;28;20516;-77
2022/11/06 08:39:47;;;;;;;8.77;6.60;;;;;;;4.50;100.00;152519.09;5055177;28;20916;-75
2022/11/06 08:42:32;;;;;;;9.27;7.20;;;;;;;4.58;100.00;152539.72;5071757;28;20453;-77
2022/11/06 08:45:18;;;;;;;9.20;8.20;;;;;;;4.61;100.00;152547.47;5070573;28;20462;-76
2022/11/06 08:48:04;;;;;;;10.80;8.47;;;;;;;4.66;100.00;152560.34;5068579;28;20433;-75
2022/11/06 08:50:51;;;;;;;9.83;8.03;;;;;;;4.67;100.00;152562.94;5070021;28;20422;-76
2022/11/06 08:53:36;;;;;;;8.03;7.00;;;;;;;4.71;100.00;152573.22;5040160;28;20485;-75
2022/11/06 08:56:21;;;;;;;8.53;7.30;;;;;;;4.80;100.00;152595.13;5072009;28;20438;-75
2022/11/06 08:59:07;;;;;;;9.90;7.27;;;;;;;4.90;100.00;152620.91;5072597;28;20457;-75
2022/11/06 09:01:52;;;;;;;11.63;9.80;;;;;;;4.98;100.00;152641.53;5072886;28;20445;-75
2022/11/06 09:04:38;;;;;;;10.20;9.00;;;;;;;5.10;100.00;152671.19;5073105;28;20527;-75
2022/11/06 09:07:24;;;;;;;11.97;8.90;;;;;;;5.23;100.00;152704.69;5070683;28;20792;-75
2022/11/06 09:10:10;;;;;;;9.60;7.53;;;;;;;5.31;100.00;152725.31;5069495;28;20808;-74
2022/11/06 09:12:58;;;;;;;10.90;8.80;;;;;;;5.39;100.00;152745.94;5048404;28;20509;-81
2022/11/06 09:15:44;;;;;;;10.77;8.63;;;;;;;5.49;100.00;152771.72;5061713;28;20453;-75
2022/11/06 09:18:29;;;;;;;13.03;9.63;;;;;;;5.58;100.00;152793.66;5073509;28;20572;-75
2022/11/06 09:21:15;;;;;;;10.70;9.60;;;;;;;5.64;100.00;152809.16;5073382;28;20453;-75
2022/11/06 09:24:02;;;;;;;9.83;8.30;;;;;;;5.72;100.00;152829.78;5057625;28;20469;-75
2022/11/06 09:26:47;;;;;;;11.73;8.93;;;;;;;5.75;100.00;152838.78;5071372;28;21053;-76
2022/11/06 09:29:32;;;;;;;10.10;8.23;;;;;;;5.84;100.00;152862.00;5067852;28;20827;-75
2022/11/06 09:32:18;;;;;;;12.23;9.30;;;;;;;5.85;100.00;152864.63;5057646;28;20828;-75
2022/11/06 09:35:03;;;;;;;10.67;8.10;;;;;;;5.84;100.00;152860.72;5063038;28;20876;-74
2022/11/06 09:37:49;;;;;;;10.10;8.37;;;;;;;5.88;100.00;152872.34;5061173;28;20456;-74
2022/11/06 09:40:37;;;;;;;8.43;6.87;;;;;;;5.98;100.00;152898.16;5072433;28;20436;-75
2022/11/06 09:43:36;;;;;;;7.50;6.70;;;;;;;6.04;100.00;152912.34;5057401;28;20457;-77
2022/11/06 09:46:24;;;;;;;7.87;6.90;;;;;;;6.17;100.00;152945.88;5056958;28;20496;-75
2022/11/06 09:49:17;;;;;;;7.00;6.30;;;;;;;6.26;100.00;152967.81;5070227;28;20563;-77
2022/11/06 09:52:05;;;;;;;8.40;6.50;;;;;;;6.29;100.00;152976.88;5072479;28;21038;-76
2022/11/06 09:54:53;;;;;;;10.13;7.47;;;;;;;6.37;100.00;152996.22;5052264;28;20418;-75
2022/11/06 09:57:45;;;;;;;8.10;6.10;;;;;;;6.46;100.00;153019.47;5047784;28;21222;-75
2022/11/06 10:00:30;;;;;;;10.27;6.57;;;;;;;6.51;100.00;153032.38;5052251;28;20489;-75
2022/11/06 10:03:18;;;;;;;9.80;6.90;;;;;;;6.54;100.00;153040.13;5037134;28;20497;-74
2022/11/06 10:06:03;;;;;;;10.10;7.60;;;;;;;6.64;100.00;153067.22;5034963;28;20399;-75
2022/11/06 10:08:50;;;;;;;7.13;6.10;;;;;;;6.79;100.00;153104.63;5036225;28;20493;-75
2022/11/06 10:11:58;;;;;;;8.43;6.47;;;;;;;7.04;100.00;153169.16;5033571;28;20412;-74
2022/11/06 10:14:56;;;;;;;6.90;6.00;;;;;;;7.14;100.00;153195.00;5050520;28;20493;-75
2022/11/06 10:17:54;;;;;;;5.97;5.37;;;;;;;7.15;100.00;153197.56;5049552;28;20457;-75
2022/11/06 10:20:44;;;;;;;8.00;7.07;;;;;;;7.05;100.00;153171.75;5037824;28;20438;-75
2022/11/06 10:23:36;;;;;;;8.60;6.57;;;;;;;7.19;100.00;153207.91;5033881;28;20447;-74
2022/11/06 10:26:28;;;;;;;7.50;6.17;;;;;;;7.32;100.00;153241.47;5039062;28;20458;-75
2022/11/06 10:29:28;;;;;;;5.43;4.87;;;;;;;7.53;100.00;153293.13;5032826;28;20522;-75
2022/11/06 10:32:30;;;;;;;6.07;5.33;;;;;;;7.61;100.00;153313.78;5051731;28;20526;-75
2022/11/06 10:35:20;;;;;;;6.63;5.60;;;;;;;7.59;100.00;153308.63;5051332;28;20473;-75
2022/11/06 10:38:09;;;;;;;7.37;6.27;;;;;;;7.63;100.00;153320.25;5052689;28;20438;-75
2022/11/06 10:40:55;;;;;;;7.13;5.87;;;;;;;7.68;100.00;153333.16;5051808;28;20414;-74
2022/11/06 10:43:46;;;;;;;7.20;5.63;;;;;;;7.74;100.00;153348.69;5051719;28;20501;-87
2022/11/06 10:46:35;;;;;;;6.77;5.70;;;;;;;7.72;100.00;153343.53;5048406;28;20520;-87
2022/11/06 10:49:28;;;;;;;6.70;5.40;;;;;;;7.75;100.00;153349.97;5047444;28;20465;-87
2022/11/06 10:52:36;;;;;;;7.07;5.63;;;;;;;7.84;100.00;153374.50;5050063;28;20442;-88
2022/11/06 10:55:54;;;;;;;7.07;6.20;;;;;;;8.03;100.00;153421.00;5049159;28;20565;-87
2022/11/06 10:58:39;;;;;;;6.70;5.97;;;;;;;8.04;100.00;153424.91;5046061;28;20470;-87
2022/11/06 11:01:25;;;;;;;6.83;5.80;;;;;;;8.16;100.00;153455.91;5051031;28;20762;-89
2022/11/06 11:04:10;;;;;;;8.43;5.60;;;;;;;8.24;100.00;153475.28;5051288;28;20461;-88
2022/11/06 11:06:56;;;;;;;9.20;7.80;;;;;;;8.30;100.00;153490.84;5051526;28;20451;-86
2022/11/06 11:09:44;;;;;;;8.50;7.47;;;;;;;8.32;100.00;153496.00;5035838;28;20445;-89
2022/11/06 11:12:31;;;;;;;10.90;8.47;;;;;;;8.08;100.00;153433.94;5050232;28;20453;-88
2022/11/06 11:15:18;;;;;;;7.17;6.47;;;;;;;8.06;100.00;153430.06;5046758;28;20598;-87
2022/11/06 11:18:09;;;;;;;9.67;7.70;;;;;;;8.11;100.00;153441.69;5048732;28;20449;-88
2022/11/06 11:21:06;;;;;;;8.87;7.97;;;;;;;8.00;100.00;153414.53;5031562;28;20505;-88
2022/11/06 11:24:09;;;;;;;9.40;7.53;;;;;;;7.97;100.00;153408.09;5050441;28;20438;-86
2022/11/06 11:26:55;;;;;;;10.23;7.70;;;;;;;8.07;100.00;153432.66;5048898;28;20580;-88
2022/11/06 11:29:43;;;;;;;10.40;7.87;;;;;;;8.15;100.00;153453.34;5048296;28;20458;-89
2022/11/06 11:32:29;;;;;;;9.70;8.70;;;;;;;7.99;100.00;153413.25;5050569;28;20458;-89
2022/11/06 11:35:19;;;;;;;8.50;7.00;;;;;;;8.08;100.00;153435.22;5050851;28;20421;-89
2022/11/06 11:38:06;;;;;;;7.03;6.30;;;;;;;8.13;100.00;153448.13;5052207;28;20430;-87
2022/11/06 11:41:05;;;;;;;7.77;6.27;;;;;;;8.11;100.00;153441.69;5050654;28;20800;-89
2022/11/06 11:44:03;;;;;;;8.80;7.00;;;;;;;8.22;100.00;153471.44;5047339;28;20454;-87
2022/11/06 11:46:50;;;;;;;9.63;7.37;;;;;;;8.24;100.00;153476.59;5037215;28;20422;-89
2022/11/06 11:49:35;;;;;;;7.33;6.53;;;;;;;8.44;100.00;153528.34;5050848;28;20482;-88
2022/11/06 11:52:21;;;;;;;7.50;6.60;;;;;;;8.42;100.00;153523.16;5050728;28;20820;-88
2022/11/06 11:55:14;;;;;;;8.10;7.27;;;;;;;8.35;100.00;153505.06;5052158;28;20406;-88
2022/11/06 11:58:01;;;;;;;9.90;7.07;;;;;;;8.40;100.00;153518.00;5050356;28;20486;-88
2022/11/06 12:00:52;;;;;;;8.10;7.10;;;;;;;8.44;100.00;153528.34;5049312;28;20569;-88
2022/11/06 12:03:41;;;;;;;7.47;6.37;;;;;;;8.50;100.00;153542.53;5041909;28;20446;-88
2022/11/06 12:06:26;;;;;;;8.07;6.60;;;;;;;8.66;100.00;153582.66;5057771;28;20422;-87
2022/11/06 12:09:13;;;;;;;9.57;7.57;;;;;;;8.71;100.00;153596.81;5054506;28;20963;-87
2022/11/06 12:11:59;;;;;;;8.40;7.30;;;;;;;8.72;100.00;153599.44;5061684;28;20417;-87
2022/11/06 12:14:46;;;;;;;7.40;6.40;;;;;;;8.72;100.00;153598.13;5055675;28;20850;-87
2022/11/06 12:17:34;;;;;;;6.47;5.67;;;;;;;8.82;100.00;153623.97;5046694;28;20442;-88
2022/11/06 12:20:22;;;;;;;8.20;5.90;;;;;;;8.87;100.00;153638.22;5052085;28;20465;-87
2022/11/06 12:23:13;;;;;;;7.40;6.50;;;;;;;8.83;100.00;153626.59;5054469;28;20454;-88
2022/11/06 12:26:04;;;;;;;8.13;6.33;;;;;;;8.92;100.00;153649.88;5052995;28;20516;-87
2022/11/06 12:28:51;;;;;;;6.40;5.70;;;;;;;9.01;100.00;153674.44;5052574;28;20466;-88
2022/11/06 12:31:40;;;;;;;6.87;5.70;;;;;;;9.08;100.00;153691.25;5054402;28;20433;-88
2022/11/06 12:34:32;;;;;;;8.50;6.50;;;;;;;9.08;100.00;153692.50;5052383;28;20469;-88
2022/11/06 12:37:21;;;;;;;7.10;6.00;;;;;;;9.01;100.00;153674.44;5050735;28;20455;-88
2022/11/06 12:40:16;;;;;;;8.13;5.63;;;;;;;9.13;100.00;153704.19;5052759;28;20411;-88
2022/11/06 12:43:16;;;;;;;5.90;4.80;;;;;;;9.18;100.00;153717.13;5051408;28;20540;-87
2022/11/06 12:46:20;;;;;;;7.33;6.03;;;;;;;9.12;99.24;153702.88;5053159;28;20589;-88
2022/11/06 12:49:46;;;;;;;7.70;5.73;;;;;;;9.20;98.27;153722.28;5049530;28;20418;-88
2022/11/06 12:52:47;;;;;;;6.83;5.53;;;;;;;9.17;97.81;153714.50;5044678;28;20442;-87
2022/11/06 12:55:34;;;;;;;5.70;4.73;;;;;;;9.20;96.37;153722.28;5073115;28;20571;-88
2022/11/06 12:58:35;;;;;;;6.40;5.33;;;;;;;9.22;98.07;153727.44;5074375;28;20487;-88
2022/11/06 13:01:25;;;;;;;6.53;5.50;;;;;;;9.17;99.16;153714.50;5066634;28;20518;-88
2022/11/06 13:04:20;;;;;;;7.60;5.33;;;;;;;9.15;99.48;153709.34;5068012;28;20499;-88
2022/11/06 13:07:30;;;;;;;5.77;4.50;;;;;;;9.18;100.00;153718.41;5068586;28;20449;-88
2022/11/06 13:10:24;;;;;;;5.40;4.50;;;;;;;9.14;96.85;153706.75;5043487;28;20461;-88